createdAt,value
2024-01-12T00:01:20.430Z,25.00
2024-01-12T00:05:23.342Z,25.40
2024-01-12T00:09:25.475Z,25.97
2024-01-12T00:13:27.110Z,26.13
2024-01-12T00:17:32.195Z,26.23
2024-01-12T00:21:34.426Z,26.07
2024-01-12T00:25:36.388Z,25.93
2024-01-12T00:29:38.585Z,25.73
2024-01-12T00:33:40.377Z,25.83
2024-01-12T00:37:42.209Z,26.40
2024-01-12T00:41:45.588Z,28.13
2024-01-12T00:45:47.384Z,27.47
2024-01-12T00:49:50.247Z,25.83
2024-01-12T00:53:52.214Z,27.87
2024-01-12T00:57:56.021Z,26.70
2024-01-12T01:01:59.676Z,27.63
2024-01-12T01:06:01.178Z,27.93
2024-01-12T01:10:04.949Z,27.53
2024-01-12T01:14:06.456Z,27.67
2024-01-12T01:18:08.284Z,27.90
2024-01-12T01:22:09.865Z,27.13
2024-01-12T01:26:12.675Z,28.83
2024-01-12T01:30:15.949Z,27.47
2024-01-12T01:34:17.804Z,27.67
2024-01-12T01:38:19.654Z,28.50
2024-01-12T01:42:21.371Z,27.73
2024-01-12T01:46:24.077Z,28.17
2024-01-12T01:50:27.355Z,27.70
2024-01-12T01:54:29.407Z,29.87
2024-01-12T01:58:32.426Z,27.67
2024-01-12T02:02:34.588Z,28.13
2024-01-12T02:06:36.482Z,28.27
2024-01-12T02:10:38.300Z,27.97
2024-01-12T02:14:40.206Z,28.30
2024-01-12T02:18:41.844Z,30.53
2024-01-12T02:22:43.577Z,29.23
2024-01-12T02:26:45.747Z,30.23
2024-01-12T02:30:48.357Z,29.23
2024-01-12T02:34:58.192Z,30.77
2024-01-12T02:39:01.347Z,29.60
2024-01-12T02:43:07.641Z,31.13
2024-01-12T02:47:10.127Z,29.97
2024-01-12T02:51:11.603Z,29.40
2024-01-12T02:55:13.398Z,30.90
2024-01-12T02:59:16.364Z,31.63
2024-01-12T03:03:20.335Z,31.07
2024-01-12T03:07:22.127Z,31.60
2024-01-12T03:11:24.029Z,31.23
2024-01-12T03:15:25.811Z,34.07
2024-01-12T03:19:27.367Z,34.03
2024-01-12T03:23:29.198Z,35.57
2024-01-12T03:27:30.625Z,37.03
2024-01-12T03:31:34.273Z,40.23
2024-01-12T03:35:37.988Z,40.87
2024-01-12T03:39:41.560Z,43.80
2024-01-12T03:43:44.059Z,44.27
2024-01-12T03:47:46.619Z,45.33
2024-01-12T03:51:55.255Z,46.47
2024-01-12T03:55:56.920Z,46.23
2024-01-12T03:59:58.584Z,45.13
2024-01-12T04:04:00.491Z,45.37
2024-01-12T04:08:06.494Z,43.80
2024-01-12T04:12:08.669Z,43.57
2024-01-12T04:16:10.240Z,44.07
2024-01-12T04:20:13.204Z,43.77
2024-01-12T04:24:14.606Z,40.40
2024-01-12T04:28:16.315Z,42.93
2024-01-12T04:32:20.243Z,45.23
2024-01-12T04:36:25.068Z,41.47
2024-01-12T04:40:28.067Z,44.37
2024-01-12T04:44:29.882Z,44.20
2024-01-12T04:48:33.459Z,44.73
2024-01-12T04:52:36.557Z,44.37
2024-01-12T04:56:38.279Z,44.50
2024-01-12T05:00:40.155Z,44.20
2024-01-12T05:04:41.677Z,46.87
2024-01-12T05:08:44.341Z,44.63
2024-01-12T05:12:47.191Z,45.27
2024-01-12T05:16:50.040Z,46.33
2024-01-12T05:20:51.646Z,45.10
2024-01-12T05:24:53.175Z,44.83
2024-01-12T05:28:56.149Z,47.27
2024-01-12T05:32:57.686Z,47.07
2024-01-12T05:37:02.185Z,50.00
2024-01-12T05:41:04.051Z,50.80
2024-01-12T05:45:08.176Z,50.87
2024-01-12T05:49:10.433Z,52.87
2024-01-12T05:53:12.480Z,53.13
2024-01-12T05:57:14.242Z,53.47
2024-01-12T06:01:15.857Z,54.20
2024-01-12T06:05:18.373Z,54.20
2024-01-12T06:09:20.899Z,53.70
2024-01-12T06:13:23.157Z,54.63
2024-01-12T06:17:24.994Z,51.27
2024-01-12T06:21:27.124Z,51.40
2024-01-12T06:25:30.929Z,50.80
2024-01-12T06:29:32.826Z,51.37
2024-01-12T06:33:35.640Z,48.60
2024-01-12T06:37:38.567Z,51.40
2024-01-12T06:41:48.051Z,50.47
2024-01-12T06:45:51.290Z,50.57
2024-01-12T06:49:53.001Z,50.17
2024-01-12T07:02:08.655Z,47.43
2024-01-12T07:06:11.073Z,48.27
2024-01-12T07:10:12.741Z,44.37
2024-01-12T07:14:15.867Z,44.63
2024-01-12T07:18:21.302Z,40.83
2024-01-12T07:22:22.849Z,37.63
2024-01-12T07:26:24.808Z,35.70
2024-01-12T07:30:26.859Z,35.07
2024-01-12T07:34:30.810Z,41.97
2024-01-12T07:38:32.955Z,27.30
2024-01-12T07:42:36.053Z,40.83
2024-01-12T07:46:37.919Z,45.63
2024-01-12T07:50:41.477Z,42.10
2024-01-12T07:54:44.561Z,42.00
2024-01-12T07:58:49.029Z,28.43
2024-01-12T08:02:55.997Z,33.63
2024-01-12T08:06:57.982Z,37.30
2024-01-12T08:10:59.849Z,38.30
2024-01-12T08:15:02.223Z,35.33
2024-01-12T08:19:04.115Z,29.63
2024-01-12T08:23:06.007Z,27.43
2024-01-12T08:27:07.544Z,36.00
2024-01-12T08:31:09.678Z,29.57
2024-01-12T08:35:11.332Z,26.40
2024-01-12T08:39:13.928Z,32.37
2024-01-12T08:43:15.646Z,35.37
2024-01-12T08:47:23.137Z,34.77
2024-01-12T08:51:24.930Z,32.30
2024-01-12T08:55:27.611Z,31.70
2024-01-12T08:59:30.006Z,30.83
2024-01-12T09:03:31.811Z,28.20
2024-01-12T09:07:33.721Z,28.20
2024-01-12T09:11:36.018Z,29.87
2024-01-12T09:15:37.499Z,29.97
2024-01-12T09:19:39.146Z,27.43
2024-01-12T09:23:42.598Z,27.37
2024-01-12T09:27:44.093Z,30.17
2024-01-12T09:31:45.696Z,28.83
2024-01-12T09:35:47.352Z,30.07
2024-01-12T09:39:49.843Z,30.70
2024-01-12T09:43:56.566Z,31.13
2024-01-12T09:48:01.293Z,29.83
2024-01-12T09:52:04.359Z,27.53
2024-01-12T09:56:08.442Z,27.43
2024-01-12T10:00:14.727Z,24.67
2024-01-12T10:04:17.426Z,26.37
2024-01-12T10:08:19.077Z,23.60
2024-01-12T10:12:20.823Z,24.80
2024-01-12T10:16:25.044Z,25.70
2024-01-12T10:20:28.697Z,25.50
2024-01-12T10:24:32.241Z,24.83
2024-01-12T10:28:34.424Z,23.57
2024-01-12T10:32:37.110Z,25.07
2024-01-12T10:36:40.118Z,27.13
2024-01-12T10:40:43.241Z,25.57
2024-01-12T10:44:55.180Z,26.60
2024-01-12T10:49:07.372Z,27.20
2024-01-12T10:53:19.134Z,26.73
2024-01-12T10:57:21.204Z,27.43
2024-01-12T11:01:25.785Z,29.13
2024-01-12T11:05:30.523Z,30.63
2024-01-12T11:09:32.777Z,30.63
2024-01-12T11:13:35.295Z,31.93
2024-01-12T11:17:38.414Z,30.57
2024-01-12T11:21:41.973Z,30.80
2024-01-12T11:25:45.156Z,31.87
2024-01-12T11:29:53.969Z,32.00
2024-01-12T11:34:02.379Z,33.30
2024-01-12T11:38:10.224Z,34.90
2024-01-12T11:42:12.413Z,33.17
2024-01-12T11:46:15.183Z,33.87
2024-01-12T11:50:21.720Z,33.03
2024-01-12T11:54:24.546Z,34.20
2024-01-12T11:58:31.416Z,33.53
2024-01-12T12:02:36.831Z,31.83
2024-01-12T12:06:38.655Z,35.37
2024-01-12T12:10:44.064Z,33.13
2024-01-12T12:14:58.747Z,32.53
2024-01-12T12:19:02.082Z,31.90
2024-01-12T12:23:05.395Z,33.70
2024-01-12T12:27:08.572Z,33.17
2024-01-12T12:31:12.189Z,30.80
2024-01-12T12:35:15.580Z,30.70
2024-01-12T12:39:21.234Z,30.13
2024-01-12T12:43:23.658Z,30.67
2024-01-12T12:47:28.618Z,28.50
2024-01-12T12:51:31.299Z,27.07
2024-01-12T12:55:32.818Z,27.70
2024-01-12T12:59:37.096Z,28.57
2024-01-12T13:03:39.211Z,27.37
2024-01-12T13:07:41.405Z,28.07
2024-01-12T13:11:43.223Z,27.47
2024-01-12T13:15:44.867Z,25.77
2024-01-12T13:19:46.410Z,27.03
2024-01-12T13:23:48.058Z,25.33
2024-01-12T13:27:49.539Z,26.93
2024-01-12T13:31:51.465Z,26.97
2024-01-12T13:35:54.948Z,25.87
2024-01-12T13:40:00.055Z,26.73
2024-01-12T13:44:04.908Z,27.20
2024-01-12T13:48:11.068Z,25.53
2024-01-12T13:52:13.698Z,26.83
2024-01-12T13:56:15.619Z,28.90
2024-01-12T14:00:29.407Z,27.53
2024-01-12T14:04:32.566Z,28.60
2024-01-12T14:08:38.508Z,31.87
2024-01-12T14:12:41.023Z,28.67
2024-01-12T14:16:43.044Z,30.93
2024-01-12T14:20:44.506Z,29.97
2024-01-12T14:24:51.095Z,35.23
2024-01-12T14:28:55.862Z,31.87
2024-01-12T14:32:58.751Z,30.17
2024-01-12T14:37:00.551Z,29.43
2024-01-12T14:41:02.247Z,26.83
2024-01-12T14:45:06.466Z,25.13
2024-01-12T14:49:12.092Z,25.67
2024-01-12T14:53:14.021Z,25.80
2024-01-12T14:57:17.656Z,24.87
2024-01-12T15:01:20.079Z,25.17
2024-01-12T15:05:24.297Z,24.53
2024-01-12T15:09:26.246Z,23.43
2024-01-12T15:13:29.222Z,22.03
2024-01-12T15:17:31.819Z,24.03
2024-01-12T15:21:34.932Z,25.70
2024-01-12T15:25:36.770Z,25.40
2024-01-12T15:29:38.375Z,24.97
2024-01-12T15:33:46.155Z,27.23
2024-01-12T15:37:48.100Z,24.13
2024-01-12T15:41:54.524Z,25.47
2024-01-12T15:45:56.809Z,24.67
2024-01-12T15:49:58.484Z,26.13
2024-01-12T15:54:01.035Z,25.90
2024-01-12T15:58:04.305Z,26.30
2024-01-12T16:02:06.665Z,26.17
2024-01-12T16:06:09.639Z,25.60
2024-01-12T16:10:11.340Z,26.17
2024-01-12T16:14:13.344Z,27.63
2024-01-12T16:18:17.693Z,28.30
2024-01-12T16:22:19.391Z,29.63
2024-01-12T16:26:22.795Z,29.80
2024-01-12T16:30:25.998Z,28.30
2024-01-12T16:34:27.884Z,28.83
2024-01-12T16:38:30.263Z,30.33
2024-01-12T16:42:31.825Z,30.23
2024-01-12T16:46:33.480Z,29.87
2024-01-12T16:50:36.135Z,29.43
2024-01-12T16:54:37.602Z,30.63
2024-01-12T16:58:42.525Z,30.17
2024-01-12T17:02:45.479Z,29.60
2024-01-12T17:06:53.608Z,28.90
2024-01-12T17:10:56.101Z,29.37
2024-01-12T17:14:57.807Z,31.07
2024-01-12T17:19:00.251Z,28.47
2024-01-12T17:23:01.951Z,31.43
2024-01-12T17:27:07.379Z,29.90
2024-01-12T17:31:10.147Z,31.80
2024-01-12T17:35:13.289Z,32.40
2024-01-12T17:39:18.866Z,34.40
2024-01-12T17:43:22.169Z,35.87
2024-01-12T17:47:23.982Z,35.07
2024-01-12T17:51:27.042Z,34.67
2024-01-12T17:55:29.921Z,34.33
2024-01-12T17:59:35.249Z,34.20
2024-01-12T18:03:36.803Z,33.87
2024-01-12T18:07:40.717Z,31.77
2024-01-12T18:11:45.313Z,33.03
2024-01-12T18:15:49.929Z,32.00
2024-01-12T18:19:51.857Z,35.00
2024-01-12T18:23:54.970Z,34.23
2024-01-12T18:27:56.733Z,32.87
2024-01-12T18:32:00.959Z,32.83
2024-01-12T18:36:03.345Z,33.27
2024-01-12T18:40:05.553Z,33.47
2024-01-12T18:44:07.003Z,31.60
2024-01-12T18:48:08.786Z,34.00
2024-01-12T18:52:12.261Z,32.37
2024-01-12T18:56:17.380Z,38.93
2024-01-12T19:00:19.563Z,33.83
2024-01-12T19:04:26.314Z,37.87
2024-01-12T19:08:31.490Z,38.00
2024-01-12T19:12:32.971Z,38.10
2024-01-12T19:16:36.115Z,34.83
2024-01-12T19:20:39.832Z,37.97
2024-01-12T19:24:49.996Z,35.07
2024-01-12T19:28:51.868Z,34.17
2024-01-12T19:32:53.584Z,32.77
2024-01-12T19:37:00.110Z,32.67
2024-01-12T19:41:03.012Z,33.20
2024-01-12T19:45:13.275Z,33.50
2024-01-12T19:49:16.228Z,34.93
2024-01-12T19:53:20.936Z,32.27
2024-01-12T19:57:23.836Z,33.40
2024-01-12T20:01:31.489Z,34.13
2024-01-12T20:05:35.589Z,34.00
2024-01-12T20:09:42.831Z,37.50
2024-01-12T20:13:44.357Z,34.33
2024-01-12T20:17:46.439Z,32.37
2024-01-12T20:21:49.453Z,33.03
2024-01-12T20:25:51.810Z,31.30
2024-01-12T20:29:53.742Z,32.20
2024-01-12T20:33:55.476Z,32.37
2024-01-12T20:37:57.046Z,32.73
2024-01-12T20:42:05.339Z,31.00
2024-01-12T20:46:07.001Z,32.50
2024-01-12T20:50:08.652Z,31.63
2024-01-12T20:54:10.606Z,29.73
2024-01-12T20:58:12.808Z,29.80
2024-01-12T21:02:16.932Z,31.97
2024-01-12T21:06:20.342Z,33.20
2024-01-12T21:10:23.715Z,30.80
2024-01-12T21:14:29.718Z,31.93
2024-01-12T21:18:36.126Z,30.73
2024-01-12T21:22:42.942Z,33.17
2024-01-12T21:26:45.070Z,32.90
2024-01-12T21:30:46.780Z,30.87
2024-01-12T21:34:50.883Z,30.17
2024-01-12T21:38:55.252Z,28.37
2024-01-12T21:42:58.518Z,30.90
2024-01-12T21:47:00.428Z,29.93
2024-01-12T21:51:02.012Z,30.93
2024-01-12T21:55:06.247Z,50.80
2024-01-12T21:59:09.190Z,34.97
2024-01-12T22:03:10.959Z,32.83
2024-01-12T22:07:13.984Z,31.20
2024-01-12T22:11:15.818Z,37.57
2024-01-12T22:15:17.598Z,33.37
2024-01-12T22:19:19.544Z,30.03
2024-01-12T22:23:21.350Z,33.73
2024-01-12T22:27:22.925Z,32.73
2024-01-12T22:31:27.677Z,31.43
2024-01-12T22:35:30.057Z,29.30
2024-01-12T22:39:31.642Z,29.90
2024-01-12T22:43:33.474Z,29.40
2024-01-12T22:47:36.371Z,30.80
2024-01-12T22:51:38.174Z,34.03
2024-01-12T22:55:39.839Z,32.10
2024-01-12T22:59:43.921Z,30.63
2024-01-12T23:03:46.605Z,37.13
2024-01-12T23:07:48.441Z,30.07
2024-01-12T23:11:51.668Z,30.63
2024-01-12T23:15:53.690Z,30.67
2024-01-12T23:19:55.679Z,28.60
2024-01-12T23:23:57.511Z,28.80
2024-01-12T23:27:59.808Z,29.40
2024-01-12T23:32:01.906Z,29.70
2024-01-12T23:36:05.571Z,28.80
2024-01-12T23:40:14.763Z,27.90
2024-01-12T23:44:16.812Z,38.17
2024-01-12T23:48:27.471Z,29.93
2024-01-12T23:52:37.480Z,29.93
2024-01-12T23:56:39.812Z,28.57
